Terminal Aerodrome Forecast
Issued by NWS

Home | Current Version | Previous Version | Text Only | Print | Product List | Glossary On
Versions: 1 2 3 4 5 6 7 8 9 10 11 12 13 14 15 16 17 18 19 20 21 22 23 24 25
000
FTUS45 KTWC 281134
TAFOLS
TAF
KOLS 281134Z 2812/2912 05005KT P6SM SCT120 BKN250
     FM281800 27005KT P6SM SCT080 BKN250
     FM282000 31008KT P6SM VCTS SCT070CB BKN100
      TEMPO 2821/2901 5SM TSRA SCT040 BKN060CB
     FM290100 12006KT P6SM VCSH BKN090 BKN120
     FM290600 VRB03KT P6SM SCT120 BKN250=

USA.gov is the U.S. government's official web portal to all federal, state and local government web resources and services.